createdAt,value
2022-09-02T00:01:16.643Z,100820.50
2022-09-02T00:03:45.776Z,100824.59
2022-09-02T00:06:13.856Z,100824.59
2022-09-02T00:08:41.472Z,100826.72
2022-09-02T00:11:11.488Z,100816.63
2022-09-02T00:13:39.076Z,100814.63
2022-09-02T00:16:07.442Z,100816.50
2022-09-02T00:18:36.107Z,100820.50
2022-09-02T00:21:05.233Z,100813.44
2022-09-02T00:23:33.439Z,100806.53
2022-09-02T00:26:01.219Z,100804.88
2022-09-02T00:28:28.703Z,100803.69
2022-09-02T00:30:58.122Z,100804.38
2022-09-02T00:33:25.668Z,100807.06
2022-09-02T00:35:53.360Z,100806.47
2022-09-02T00:38:22.232Z,100814.56
2022-09-02T00:40:51.619Z,100804.38
2022-09-02T00:43:27.355Z,100809.38
2022-09-02T00:45:55.751Z,100820.31
2022-09-02T00:48:23.313Z,100808.13
2022-09-02T00:50:50.927Z,100810.00
2022-09-02T00:53:19.110Z,100802.72
2022-09-02T00:55:50.486Z,100804.00
2022-09-02T00:58:22.079Z,100809.06
2022-09-02T01:00:52.454Z,100796.59
2022-09-02T01:03:22.462Z,100803.66
2022-09-02T01:05:52.129Z,100807.94
2022-09-02T01:08:21.650Z,100804.16
2022-09-02T01:10:50.604Z,100798.31
2022-09-02T01:13:21.318Z,100798.09
2022-09-02T01:15:51.464Z,100800.28
2022-09-02T01:18:21.968Z,100799.69
2022-09-02T01:20:49.676Z,100792.66
2022-09-02T01:23:19.933Z,100803.56
2022-09-02T01:25:48.292Z,100798.06
2022-09-02T01:28:18.380Z,100801.56
2022-09-02T01:30:48.404Z,100802.53
2022-09-02T01:33:16.102Z,100795.47
2022-09-02T01:35:44.254Z,100798.16
2022-09-02T01:38:12.139Z,100792.31
2022-09-02T01:40:41.630Z,100793.63
2022-09-02T01:43:11.136Z,100794.53
2022-09-02T01:45:40.701Z,100794.66
2022-09-02T01:48:09.698Z,100789.59
2022-09-02T01:50:39.076Z,100792.41
2022-09-02T01:53:08.994Z,100783.72
2022-09-02T01:55:36.537Z,100791.34
2022-09-02T01:58:05.459Z,100786.41
2022-09-02T02:00:32.998Z,100788.03
2022-09-02T02:03:00.534Z,100785.22
2022-09-02T02:05:28.911Z,100794.22
2022-09-02T02:07:56.425Z,100792.44
2022-09-02T02:10:24.674Z,100787.88
2022-09-02T02:12:52.614Z,100794.34
2022-09-02T02:15:22.117Z,100790.47
2022-09-02T02:17:49.677Z,100791.38
2022-09-02T02:20:18.938Z,100787.16
2022-09-02T02:22:46.499Z,100793.00
2022-09-02T02:25:15.218Z,100787.63
2022-09-02T02:27:43.727Z,100785.41
2022-09-02T02:30:13.451Z,100785.25
2022-09-02T02:32:43.114Z,100785.41
2022-09-02T02:35:11.462Z,100790.19
2022-09-02T02:37:39.039Z,100791.38
2022-09-02T02:40:08.787Z,100790.44
2022-09-02T02:42:36.575Z,100797.69
2022-09-02T02:45:09.447Z,100791.56
2022-09-02T02:47:46.112Z,100788.19
2022-09-02T02:50:15.526Z,100787.50
2022-09-02T02:52:43.493Z,100788.63
2022-09-02T02:55:13.163Z,100781.41
2022-09-02T02:57:42.710Z,100791.56
2022-09-02T03:00:12.645Z,100794.72
2022-09-02T03:02:40.506Z,100799.03
2022-09-02T03:05:11.716Z,100786.47
2022-09-02T03:07:39.282Z,100789.50
2022-09-02T03:10:09.125Z,100789.34
2022-09-02T03:12:37.185Z,100790.56
2022-09-02T03:15:06.005Z,100793.69
2022-09-02T03:17:33.950Z,100787.84
2022-09-02T03:20:01.726Z,100795.94
2022-09-02T03:22:30.564Z,100785.63
2022-09-02T03:24:58.228Z,100785.50
2022-09-02T03:27:25.929Z,100782.59
2022-09-02T03:29:53.445Z,100786.47
2022-09-02T03:32:20.947Z,100774.66
2022-09-02T03:34:48.456Z,100787.31
2022-09-02T03:37:16.692Z,100775.84
2022-09-02T03:39:45.523Z,100774.06
2022-09-02T03:42:19.755Z,100791.34
2022-09-02T03:44:47.709Z,100780.06
2022-09-02T03:47:17.595Z,100777.16
2022-09-02T03:49:48.511Z,100769.59
2022-09-02T03:52:16.130Z,100768.00
2022-09-02T03:54:44.940Z,100774.06
2022-09-02T03:57:12.460Z,100777.66
2022-09-02T03:59:40.122Z,100764.34
2022-09-02T04:02:07.910Z,100776.47
2022-09-02T04:04:35.897Z,100783.38
2022-09-02T04:07:03.815Z,100775.13
2022-09-02T04:09:31.393Z,100772.38
2022-09-02T04:12:00.205Z,100776.78
2022-09-02T04:14:27.776Z,100765.50
2022-09-02T04:16:55.251Z,100768.56
2022-09-02T04:19:22.736Z,100771.47
2022-09-02T04:21:50.194Z,100766.59
2022-09-02T04:24:17.820Z,100774.75
2022-09-02T04:26:45.525Z,100771.28
2022-09-02T04:29:14.613Z,100767.03
2022-09-02T04:31:42.610Z,100772.28
2022-09-02T04:34:10.135Z,100775.72
2022-09-02T04:36:37.630Z,100776.59
2022-09-02T04:39:06.031Z,100778.47
2022-09-02T04:41:35.591Z,100774.59
2022-09-02T04:44:04.069Z,100771.38
2022-09-02T04:46:34.771Z,100775.91
2022-09-02T04:49:03.074Z,100776.78
2022-09-02T04:51:31.249Z,100774.06
2022-09-02T04:53:58.694Z,100776.56
2022-09-02T04:56:28.164Z,100769.72
2022-09-02T04:58:55.920Z,100771.84
2022-09-02T05:01:25.236Z,100772.88
2022-09-02T05:03:54.956Z,100777.22
2022-09-02T05:06:24.438Z,100774.38
2022-09-02T05:08:51.904Z,100777.06
2022-09-02T05:11:21.977Z,100783.72
2022-09-02T05:13:51.464Z,100770.94
2022-09-02T05:16:20.630Z,100780.81
2022-09-02T05:18:48.895Z,100777.34
2022-09-02T05:21:17.942Z,100773.91
2022-09-02T05:23:45.452Z,100780.94
2022-09-02T05:26:14.126Z,100780.59
2022-09-02T05:28:42.909Z,100776.94
2022-09-02T05:31:12.879Z,100784.00
2022-09-02T05:33:42.030Z,100782.59
2022-09-02T05:36:12.493Z,100777.22
2022-09-02T05:38:41.490Z,100779.25
2022-09-02T05:41:09.699Z,100788.09
2022-09-02T05:43:37.998Z,100780.88
2022-09-02T05:46:08.141Z,100785.75
2022-09-02T05:48:53.903Z,100785.88
2022-09-02T05:51:21.709Z,100783.78
2022-09-02T05:53:53.165Z,100783.38
2022-09-02T05:56:20.718Z,100786.44
2022-09-02T05:58:48.192Z,100785.44
2022-09-02T06:01:17.265Z,100781.53
2022-09-02T06:03:44.830Z,100786.44
2022-09-02T06:06:12.524Z,100780.59
2022-09-02T06:08:40.431Z,100780.22
2022-09-02T06:11:11.413Z,100772.91
2022-09-02T06:13:41.723Z,100781.19
2022-09-02T06:16:10.576Z,100771.00
2022-09-02T06:18:38.143Z,100775.91
2022-09-02T06:21:06.669Z,100775.41
2022-09-02T06:23:35.665Z,100780.34
2022-09-02T06:26:03.325Z,100783.53
2022-09-02T06:28:33.517Z,100780.53
2022-09-02T06:31:01.095Z,100790.00
2022-09-02T06:33:28.601Z,100783.72
2022-09-02T06:35:56.117Z,100782.53
2022-09-02T06:38:23.613Z,100784.53
2022-09-02T06:40:52.897Z,100779.75
2022-09-02T06:43:20.576Z,100785.06
2022-09-02T06:45:49.499Z,100788.59
2022-09-02T06:48:17.033Z,100790.03
2022-09-02T06:50:46.707Z,100785.28
2022-09-02T06:53:14.820Z,100785.63
2022-09-02T06:55:47.048Z,100783.75
2022-09-02T06:58:15.058Z,100786.22
2022-09-02T07:00:42.894Z,100777.78
2022-09-02T07:03:30.123Z,100775.78
2022-09-02T07:06:02.338Z,100771.44
2022-09-02T07:08:29.939Z,100771.91
2022-09-02T07:10:57.427Z,100767.59
2022-09-02T07:13:24.997Z,100763.25
2022-09-02T07:15:52.499Z,100767.81
2022-09-02T07:18:21.340Z,100779.06
2022-09-02T07:20:48.894Z,100768.41
2022-09-02T07:23:17.074Z,100770.03
2022-09-02T07:25:44.993Z,100765.09
2022-09-02T07:28:13.161Z,100771.66
2022-09-02T07:30:42.967Z,100765.31
2022-09-02T07:33:13.909Z,100768.16
2022-09-02T07:35:43.568Z,100762.53
2022-09-02T07:38:11.703Z,100760.16
2022-09-02T07:40:40.437Z,100767.69
2022-09-02T07:43:10.748Z,100768.25
2022-09-02T07:45:39.271Z,100767.78
2022-09-02T07:48:07.566Z,100759.81
2022-09-02T07:50:37.122Z,100763.19
2022-09-02T07:53:06.403Z,100760.00
2022-09-02T07:55:35.013Z,100760.59
2022-09-02T07:58:02.982Z,100765.06
2022-09-02T08:00:30.941Z,100758.09
2022-09-02T08:02:58.560Z,100756.78
2022-09-02T08:05:26.141Z,100754.09
2022-09-02T08:07:53.975Z,100752.28
2022-09-02T08:10:25.821Z,100750.13
2022-09-02T08:12:53.375Z,100741.78
2022-09-02T08:15:21.055Z,100741.94
2022-09-02T08:17:49.000Z,100749.94
2022-09-02T08:20:18.121Z,100746.72
2022-09-02T08:22:50.775Z,100752.91
2022-09-02T08:25:28.109Z,100751.75
2022-09-02T08:30:28.180Z,100746.59
2022-09-02T08:32:56.122Z,100748.81
2022-09-02T08:35:23.805Z,100744.47
2022-09-02T08:37:51.898Z,100736.44
2022-09-02T08:40:21.514Z,100733.66
2022-09-02T08:42:52.937Z,100739.88
2022-09-02T08:45:25.427Z,100739.66
2022-09-02T08:48:00.453Z,100740.38
2022-09-02T08:50:28.333Z,100730.50
2022-09-02T08:53:02.966Z,100739.72
2022-09-02T08:55:38.083Z,100732.31
2022-09-02T09:00:41.859Z,100732.22
2022-09-02T09:03:18.623Z,100737.53
2022-09-02T09:05:52.062Z,100731.44
2022-09-02T09:08:25.114Z,100719.91
2022-09-02T09:11:00.160Z,100722.09
2022-09-02T09:13:48.135Z,100717.25
2022-09-02T09:16:22.175Z,100714.13
2022-09-02T09:18:55.027Z,100719.53
2022-09-02T09:23:57.441Z,100708.75
2022-09-02T09:26:29.055Z,100701.66
2022-09-02T09:28:59.669Z,100701.50
2022-09-02T09:31:31.263Z,100705.91
2022-09-02T09:33:59.903Z,100690.00
2022-09-02T09:36:51.194Z,100690.22
2022-09-02T09:39:20.979Z,100680.72
2022-09-02T09:41:49.831Z,100677.25
2022-09-02T09:44:42.068Z,100675.78
2022-09-02T09:47:16.016Z,100679.09
2022-09-02T09:49:45.344Z,100671.81
2022-09-02T09:52:12.920Z,100668.91
2022-09-02T09:54:40.417Z,100663.53
2022-09-02T09:57:17.525Z,100674.63
2022-09-02T09:59:55.901Z,100676.31
2022-09-02T10:02:25.413Z,100669.63
2022-09-02T10:04:53.983Z,100662.00
2022-09-02T10:07:39.711Z,100664.25
2022-09-02T10:10:17.285Z,100661.84
2022-09-02T10:12:45.511Z,100662.28
2022-09-02T10:15:14.618Z,100650.66
2022-09-02T10:17:49.321Z,100661.22
2022-09-02T10:20:20.072Z,100666.66
2022-09-02T10:23:15.931Z,100658.50
2022-09-02T10:25:54.711Z,100659.13
2022-09-02T10:28:41.142Z,100646.94
2022-09-02T10:31:14.791Z,100649.69
2022-09-02T10:33:50.522Z,100642.41
2022-09-02T10:36:25.458Z,100638.91
2022-09-02T10:38:53.029Z,100637.56
2022-09-02T10:41:31.850Z,100631.88
2022-09-02T10:44:06.432Z,100632.69
2022-09-02T10:46:41.095Z,100630.50
2022-09-02T10:49:16.137Z,100627.78
2022-09-02T10:51:48.262Z,100619.34
2022-09-02T10:54:25.604Z,100616.88
2022-09-02T10:56:58.313Z,100633.22
2022-09-02T10:59:28.297Z,100623.97
2022-09-02T11:02:00.589Z,100625.88
2022-09-02T11:04:37.092Z,100614.47
2022-09-02T11:07:06.072Z,100607.91
2022-09-02T11:09:36.923Z,100614.19
2022-09-02T11:12:09.383Z,100609.84
2022-09-02T11:14:39.012Z,100600.03
2022-09-02T11:17:12.973Z,100592.69
2022-09-02T11:19:43.324Z,100598.91
2022-09-02T11:22:18.115Z,100605.16
2022-09-02T11:24:49.252Z,100600.00
2022-09-02T11:27:41.652Z,100594.81
2022-09-02T11:30:13.820Z,100596.44
2022-09-02T11:32:47.650Z,100597.78
2022-09-02T11:35:18.345Z,100585.84
2022-09-02T11:37:48.332Z,100588.81
2022-09-02T11:40:36.338Z,100585.28
2022-09-02T11:43:10.163Z,100586.59
2022-09-02T11:46:00.912Z,100580.38
2022-09-02T11:48:54.414Z,100583.09
2022-09-02T11:51:34.506Z,100579.31
2022-09-02T11:54:04.693Z,100568.72
2022-09-02T11:56:37.921Z,100573.84
2022-09-02T11:59:07.030Z,100573.59
2022-09-02T12:01:37.257Z,100572.75
2022-09-02T12:04:59.225Z,100560.25
2022-09-02T12:07:29.917Z,100555.91
2022-09-02T12:10:02.646Z,100554.28
2022-09-02T12:13:03.784Z,100567.34
2022-09-02T12:15:36.172Z,100568.38
2022-09-02T12:18:29.960Z,100566.22
2022-09-02T12:21:08.528Z,100551.00
2022-09-02T12:24:21.749Z,100534.72
2022-09-02T12:27:12.838Z,100535.28
2022-09-02T12:29:40.336Z,100533.34
2022-09-02T12:32:09.716Z,100535.53
2022-09-02T12:34:53.854Z,100533.06
2022-09-02T12:37:57.145Z,100545.84
2022-09-02T12:40:34.990Z,100531.19
2022-09-02T12:43:06.392Z,100522.22
2022-09-02T12:45:35.215Z,100525.47
2022-09-02T12:48:08.031Z,100520.28
2022-09-02T12:50:55.119Z,100525.72
2022-09-02T12:53:41.225Z,100521.91
2022-09-02T12:56:21.254Z,100508.03
2022-09-02T12:58:51.679Z,100504.78
2022-09-02T13:01:21.774Z,100502.03
2022-09-02T13:04:21.207Z,100505.84
2022-09-02T13:07:06.337Z,100497.66
2022-09-02T13:10:04.593Z,100487.34
2022-09-02T13:12:53.335Z,100491.13
2022-09-02T13:15:27.830Z,100481.56
2022-09-02T13:18:20.707Z,100490.53
2022-09-02T13:21:00.850Z,100482.88
2022-09-02T13:24:00.330Z,100474.97
2022-09-02T13:26:50.368Z,100479.31
2022-09-02T13:29:54.218Z,100486.13
2022-09-02T13:32:24.335Z,100473.63
2022-09-02T13:34:55.039Z,100475.53
2022-09-02T13:37:36.522Z,100456.19
2022-09-02T13:40:07.721Z,100449.69
2022-09-02T13:42:37.319Z,100444.47
2022-09-02T13:45:15.158Z,100460.47
2022-09-02T13:47:44.115Z,100449.84
2022-09-02T13:50:12.657Z,100434.88
2022-09-02T13:57:20.746Z,100429.31
2022-09-02T14:00:17.975Z,100439.44
2022-09-02T14:03:37.293Z,100422.84
2022-09-02T14:06:56.484Z,100412.22
2022-09-02T14:09:56.407Z,100412.47
2022-09-02T14:13:15.532Z,100402.16
2022-09-02T14:16:16.365Z,100396.94
2022-09-02T14:22:32.646Z,100395.78
2022-09-02T14:25:27.138Z,100397.72
2022-09-02T14:28:44.211Z,100385.72
2022-09-02T14:31:47.671Z,100396.53
2022-09-02T14:35:14.285Z,100392.72
2022-09-02T14:38:50.817Z,100379.38
2022-09-02T14:42:13.188Z,100371.25
2022-09-02T14:48:29.978Z,100370.22
2022-09-02T14:54:32.984Z,100366.72
2022-09-02T14:57:32.919Z,100354.63
2022-09-02T15:07:03.687Z,100341.09
2022-09-02T15:09:31.420Z,100344.28
2022-09-02T15:12:02.669Z,100343.72
2022-09-02T15:14:30.892Z,100342.47
2022-09-02T15:16:59.758Z,100344.34
2022-09-02T15:19:29.047Z,100338.34
2022-09-02T15:21:56.627Z,100330.38
2022-09-02T15:24:24.401Z,100335.53
2022-09-02T15:26:52.348Z,100331.09
2022-09-02T15:29:19.892Z,100331.31
2022-09-02T15:31:47.482Z,100332.75
2022-09-02T15:34:14.982Z,100333.00
2022-09-02T15:36:43.844Z,100339.56
2022-09-02T15:39:11.666Z,100333.41
2022-09-02T15:41:39.210Z,100336.56
2022-09-02T15:44:07.495Z,100332.75
2022-09-02T15:46:37.052Z,100333.19
2022-09-02T15:49:07.165Z,100330.19
2022-09-02T15:51:35.442Z,100320.91
2022-09-02T15:54:06.136Z,100327.19
2022-09-02T15:56:35.178Z,100324.94
2022-09-02T15:59:04.601Z,100313.00
2022-09-02T16:01:34.373Z,100313.31
2022-09-02T16:04:03.142Z,100316.88
2022-09-02T16:06:31.781Z,100320.22
2022-09-02T16:08:59.488Z,100330.81
2022-09-02T16:11:28.405Z,100325.97
2022-09-02T16:13:55.929Z,100321.91
2022-09-02T16:16:23.592Z,100320.72
2022-09-02T16:18:52.692Z,100321.09
2022-09-02T16:21:21.307Z,100317.69
2022-09-02T16:23:49.236Z,100309.47
2022-09-02T16:26:23.528Z,100317.75
2022-09-02T16:28:53.503Z,100308.78
2022-09-02T16:31:21.864Z,100317.19
2022-09-02T16:33:53.500Z,100311.72
2022-09-02T16:36:21.357Z,100300.31
2022-09-02T16:38:48.841Z,100305.25
2022-09-02T16:41:24.240Z,100297.59
2022-09-02T16:44:39.798Z,100308.00
2022-09-02T16:47:33.801Z,100311.75
2022-09-02T16:53:42.988Z,100306.28
2022-09-02T16:56:55.616Z,100300.88
2022-09-02T16:59:41.671Z,100295.53
2022-09-02T17:06:23.176Z,100303.44
2022-09-02T17:09:01.687Z,100304.00
2022-09-02T17:11:54.170Z,100307.34
2022-09-02T17:15:11.922Z,100310.56
2022-09-02T17:18:57.266Z,100304.91
2022-09-02T17:22:00.157Z,100314.38
2022-09-02T17:24:53.520Z,100311.94
2022-09-02T17:28:12.990Z,100316.66
2022-09-02T17:30:48.656Z,100314.53
2022-09-02T17:33:30.105Z,100319.97
2022-09-02T17:36:37.535Z,100310.97
2022-09-02T17:39:08.657Z,100319.97
2022-09-02T17:41:54.368Z,100316.16
2022-09-02T17:44:23.298Z,100318.91
2022-09-02T17:46:51.077Z,100321.34
2022-09-02T17:49:20.349Z,100309.38
2022-09-02T17:51:48.467Z,100311.84
2022-09-02T17:54:18.176Z,100311.28
2022-09-02T17:57:04.935Z,100308.56
2022-09-02T17:59:42.882Z,100309.38
2022-09-02T18:02:41.634Z,100315.84
2022-09-02T18:05:17.742Z,100316.63
2022-09-02T18:07:53.305Z,100314.75
2022-09-02T18:10:22.471Z,100307.41
2022-09-02T18:12:50.512Z,100316.91
2022-09-02T18:15:19.511Z,100313.63
2022-09-02T18:17:49.262Z,100306.28
2022-09-02T18:20:22.171Z,100321.72
2022-09-02T18:23:09.009Z,100316.59
2022-09-02T18:25:48.585Z,100319.59
2022-09-02T18:28:29.673Z,100319.28
2022-09-02T18:31:05.391Z,100325.00
2022-09-02T18:33:50.143Z,100320.38
2022-09-02T18:36:30.164Z,100325.00
2022-09-02T18:39:08.787Z,100324.38
2022-09-02T18:41:53.858Z,100331.69
2022-09-02T18:44:32.085Z,100330.59
2022-09-02T18:47:01.869Z,100335.91
2022-09-02T18:49:32.714Z,100332.59
2022-09-02T18:52:02.266Z,100329.56
2022-09-02T18:54:32.176Z,100339.25
2022-09-02T18:57:06.158Z,100339.88
2022-09-02T18:59:37.994Z,100339.59
2022-09-02T19:02:12.828Z,100340.41
2022-09-02T19:04:40.676Z,100338.84
2022-09-02T19:07:27.786Z,100343.16
2022-09-02T19:09:56.088Z,100339.88
2022-09-02T19:12:32.814Z,100349.31
2022-09-02T19:15:01.511Z,100347.13
2022-09-02T19:17:30.215Z,100345.19
2022-09-02T19:19:58.067Z,100347.63
2022-09-02T19:22:28.341Z,100341.66
2022-09-02T19:25:01.351Z,100336.50
2022-09-02T19:27:32.991Z,100345.47
2022-09-02T19:30:07.175Z,100343.81
2022-09-02T19:32:37.387Z,100348.09
2022-09-02T19:35:08.713Z,100348.88
2022-09-02T19:37:44.232Z,100350.75
2022-09-02T19:40:14.933Z,100358.63
2022-09-02T19:42:43.934Z,100349.84
2022-09-02T19:45:15.980Z,100349.34
2022-09-02T19:48:05.984Z,100344.44
2022-09-02T19:50:32.855Z,100344.16
2022-09-02T19:53:00.521Z,100350.09
2022-09-02T19:55:28.198Z,100337.50
2022-09-02T19:57:57.174Z,100350.88
2022-09-02T20:00:24.868Z,100342.97
2022-09-02T20:02:52.542Z,100344.53
2022-09-02T20:05:21.560Z,100344.53
2022-09-02T20:07:49.275Z,100343.66
2022-09-02T20:10:17.056Z,100343.66
2022-09-02T20:12:48.380Z,100337.75
2022-09-02T20:15:17.544Z,100342.91
2022-09-02T20:17:45.146Z,100345.06
2022-09-02T20:20:16.991Z,100338.44
2022-09-02T20:22:45.795Z,100343.25
2022-09-02T20:25:13.724Z,100344.63
2022-09-02T20:27:51.562Z,100349.44
2022-09-02T20:30:23.422Z,100358.34
2022-09-02T20:32:57.968Z,100354.59
2022-09-02T20:35:46.750Z,100361.81
2022-09-02T20:38:32.069Z,100354.75
2022-09-02T20:41:06.330Z,100356.13
2022-09-02T20:43:54.894Z,100351.53
2022-09-02T20:46:38.889Z,100352.34
2022-09-02T20:49:20.369Z,100357.34
2022-09-02T20:51:52.621Z,100354.69
2022-09-02T20:54:33.510Z,100361.22
2022-09-02T20:57:14.479Z,100356.88
2022-09-02T20:59:53.509Z,100353.25
2022-09-02T21:02:26.856Z,100362.03
2022-09-02T21:04:57.290Z,100352.75
2022-09-02T21:07:28.395Z,100343.56
2022-09-02T21:10:06.602Z,100354.69
2022-09-02T21:12:43.485Z,100340.09
2022-09-02T21:15:19.464Z,100348.97
2022-09-02T21:17:52.175Z,100345.72
2022-09-02T21:20:59.217Z,100348.69
2022-09-02T21:24:08.263Z,100350.56
2022-09-02T21:26:56.743Z,100345.06
2022-09-02T21:29:36.746Z,100335.31
2022-09-02T21:32:15.211Z,100334.06
2022-09-02T21:34:53.454Z,100335.41
2022-09-02T21:37:22.275Z,100338.56
2022-09-02T21:39:55.125Z,100347.75
2022-09-02T21:42:28.373Z,100354.88
2022-09-02T21:45:06.026Z,100351.72
2022-09-02T21:47:42.519Z,100351.13
2022-09-02T21:50:21.868Z,100348.28
2022-09-02T21:53:00.765Z,100350.38
2022-09-02T21:55:48.202Z,100355.91
2022-09-02T21:58:36.234Z,100356.16
2022-09-02T22:01:09.167Z,100349.56
2022-09-02T22:03:44.654Z,100354.91
2022-09-02T22:06:27.825Z,100346.22
2022-09-02T22:08:59.550Z,100354.78
2022-09-02T22:11:33.537Z,100355.47
2022-09-02T22:14:08.974Z,100347.28
2022-09-02T22:16:45.979Z,100344.03
2022-09-02T23:07:13.864Z,100346.44
2022-09-02T23:24:09.347Z,100340.13
